sensor_id;sensor_type;location;lat;lon;timestamp;pressure;altitude;pressure_sealevel;temperature;humidity
21781;BME280;52576;53.614;9.894;2023-04-16T00:00:36;101655.78;;;7.59;78.57
21781;BME280;52576;53.614;9.894;2023-04-16T00:02:41;101649.78;;;7.57;78.61
21781;BME280;52576;53.614;9.894;2023-04-16T00:04:45;101660.22;;;7.57;78.49
21781;BME280;52576;53.614;9.894;2023-04-16T00:06:49;101655.97;;;7.55;78.73
21781;BME280;52576;53.614;9.894;2023-04-16T00:08:52;101654.44;;;7.51;78.53
21781;BME280;52576;53.614;9.894;2023-04-16T00:10:55;101657.09;;;7.49;78.76
21781;BME280;52576;53.614;9.894;2023-04-16T00:12:59;101667.66;;;7.46;78.66
21781;BME280;52576;53.614;9.894;2023-04-16T00:15:03;101664.25;;;7.44;78.66
21781;BME280;52576;53.614;9.894;2023-04-16T00:17:07;101662.66;;;7.40;78.67
21781;BME280;52576;53.614;9.894;2023-04-16T00:19:12;101657.56;;;7.37;78.78
21781;BME280;52576;53.614;9.894;2023-04-16T00:21:15;101657.69;;;7.34;78.86
21781;BME280;52576;53.614;9.894;2023-04-16T00:23:19;101665.56;;;7.32;78.96
21781;BME280;52576;53.614;9.894;2023-04-16T00:25:23;101662.16;;;7.30;79.10
21781;BME280;52576;53.614;9.894;2023-04-16T00:27:26;101656.16;;;7.28;79.17
21781;BME280;52576;53.614;9.894;2023-04-16T00:29:30;101661.47;;;7.27;79.28
21781;BME280;52576;53.614;9.894;2023-04-16T00:31:36;101663.22;;;7.26;79.26
21781;BME280;52576;53.614;9.894;2023-04-16T00:33:39;101662.38;;;7.26;79.40
21781;BME280;52576;53.614;9.894;2023-04-16T00:35:45;101659.75;;;7.26;79.54
21781;BME280;52576;53.614;9.894;2023-04-16T00:37:49;101665.81;;;7.26;79.51
21781;BME280;52576;53.614;9.894;2023-04-16T00:39:52;101661.47;;;7.27;79.53
21781;BME280;52576;53.614;9.894;2023-04-16T00:41:56;101666.66;;;7.27;79.50
21781;BME280;52576;53.614;9.894;2023-04-16T00:43:59;101668.34;;;7.28;79.36
21781;BME280;52576;53.614;9.894;2023-04-16T00:46:04;101662.22;;;7.29;79.28
21781;BME280;52576;53.614;9.894;2023-04-16T00:48:08;101667.44;;;7.29;79.42
21781;BME280;52576;53.614;9.894;2023-04-16T00:50:12;101667.38;;;7.30;79.60
21781;BME280;52576;53.614;9.894;2023-04-16T00:52:17;101663.00;;;7.31;79.39
21781;BME280;52576;53.614;9.894;2023-04-16T00:54:21;101664.72;;;7.32;79.32
21781;BME280;52576;53.614;9.894;2023-04-16T00:56:25;101666.41;;;7.33;79.42
21781;BME280;52576;53.614;9.894;2023-04-16T00:58:29;101667.19;;;7.35;79.50
21781;BME280;52576;53.614;9.894;2023-04-16T01:00:33;101666.28;;;7.36;79.48
21781;BME280;52576;53.614;9.894;2023-04-16T01:02:36;101675.75;;;7.38;79.26
21781;BME280;52576;53.614;9.894;2023-04-16T01:04:41;101666.19;;;7.39;79.27
21781;BME280;52576;53.614;9.894;2023-04-16T01:06:45;101670.50;;;7.40;79.40
21781;BME280;52576;53.614;9.894;2023-04-16T01:08:50;101673.09;;;7.40;79.25
21781;BME280;52576;53.614;9.894;2023-04-16T01:10:53;101669.56;;;7.41;79.24
21781;BME280;52576;53.614;9.894;2023-04-16T01:12:57;101669.56;;;7.41;79.09
21781;BME280;52576;53.614;9.894;2023-04-16T01:15:01;101673.81;;;7.43;79.08
21781;BME280;52576;53.614;9.894;2023-04-16T01:17:04;101672.97;;;7.43;78.96
21781;BME280;52576;53.614;9.894;2023-04-16T01:19:08;101686.81;;;7.45;79.03
21781;BME280;52576;53.614;9.894;2023-04-16T01:21:13;101681.59;;;7.45;79.05
21781;BME280;52576;53.614;9.894;2023-04-16T01:23:17;101677.22;;;7.45;79.07
21781;BME280;52576;53.614;9.894;2023-04-16T01:25:21;101686.81;;;7.45;78.95
21781;BME280;52576;53.614;9.894;2023-04-16T01:27:24;101676.38;;;7.45;78.99
21781;BME280;52576;53.614;9.894;2023-04-16T01:29:28;101688.44;;;7.47;78.85
21781;BME280;52576;53.614;9.894;2023-04-16T01:31:33;101688.41;;;7.49;79.13
21781;BME280;52576;53.614;9.894;2023-04-16T01:33:47;101694.47;;;7.49;78.82
21781;BME280;52576;53.614;9.894;2023-04-16T01:35:51;101698.72;;;7.52;78.78
21781;BME280;52576;53.614;9.894;2023-04-16T01:37:56;101696.94;;;7.53;78.59
21781;BME280;52576;53.614;9.894;2023-04-16T01:40:00;101707.28;;;7.54;78.48
21781;BME280;52576;53.614;9.894;2023-04-16T01:42:03;101704.69;;;7.54;78.34
21781;BME280;52576;53.614;9.894;2023-04-16T01:44:07;101708.25;;;7.53;78.28
21781;BME280;52576;53.614;9.894;2023-04-16T01:46:13;101703.94;;;7.52;78.24
21781;BME280;52576;53.614;9.894;2023-04-16T01:48:17;101701.31;;;7.52;78.21
21781;BME280;52576;53.614;9.894;2023-04-16T01:50:22;101703.94;;;7.52;78.25
21781;BME280;52576;53.614;9.894;2023-04-16T01:52:26;101710.84;;;7.53;78.19
21781;BME280;52576;53.614;9.894;2023-04-16T01:54:32;101705.63;;;7.53;77.96
21781;BME280;52576;53.614;9.894;2023-04-16T01:56:35;101708.25;;;7.53;78.25
21781;BME280;52576;53.614;9.894;2023-04-16T01:58:39;101698.56;;;7.55;78.22
21781;BME280;52576;53.614;9.894;2023-04-16T02:00:43;101701.13;;;7.57;78.13
21781;BME280;52576;53.614;9.894;2023-04-16T02:02:47;101701.13;;;7.57;78.08
21781;BME280;52576;53.614;9.894;2023-04-16T02:04:59;101708.03;;;7.58;78.02
21781;BME280;52576;53.614;9.894;2023-04-16T02:07:03;101706.28;;;7.58;78.14
21781;BME280;52576;53.614;9.894;2023-04-16T02:09:06;101710.56;;;7.59;77.81
21781;BME280;52576;53.614;9.894;2023-04-16T02:11:13;101718.47;;;7.58;77.93
21781;BME280;52576;53.614;9.894;2023-04-16T02:13:17;101719.31;;;7.58;78.03
21781;BME280;52576;53.614;9.894;2023-04-16T02:15:21;101719.31;;;7.58;78.05
21781;BME280;52576;53.614;9.894;2023-04-16T02:17:26;101717.50;;;7.60;78.05
21781;BME280;52576;53.614;9.894;2023-04-16T02:19:43;101725.25;;;7.62;78.05
21781;BME280;52576;53.614;9.894;2023-04-16T02:21:47;101721.81;;;7.61;78.03
21781;BME280;52576;53.614;9.894;2023-04-16T02:23:51;101713.97;;;7.61;78.15
21781;BME280;52576;53.614;9.894;2023-04-16T02:26:02;101713.13;;;7.61;78.19
21781;BME280;52576;53.614;9.894;2023-04-16T02:28:08;101719.19;;;7.61;78.23
21781;BME280;52576;53.614;9.894;2023-04-16T02:30:14;101715.81;;;7.59;78.47
21781;BME280;52576;53.614;9.894;2023-04-16T02:32:18;101727.94;;;7.60;78.41
21781;BME280;52576;53.614;9.894;2023-04-16T02:34:23;101720.16;;;7.59;78.53
21781;BME280;52576;53.614;9.894;2023-04-16T02:36:27;101710.56;;;7.59;78.78
21781;BME280;52576;53.614;9.894;2023-04-16T02:38:31;101718.41;;;7.59;78.86
21781;BME280;52576;53.614;9.894;2023-04-16T02:40:34;101716.72;;;7.58;78.80
21781;BME280;52576;53.614;9.894;2023-04-16T02:42:37;101721.88;;;7.60;79.02
21781;BME280;52576;53.614;9.894;2023-04-16T02:44:43;101722.72;;;7.60;78.96
21781;BME280;52576;53.614;9.894;2023-04-16T02:46:47;101721.00;;;7.59;79.09
21781;BME280;52576;53.614;9.894;2023-04-16T02:48:50;101724.53;;;7.58;79.05
21781;BME280;52576;53.614;9.894;2023-04-16T02:50:54;101726.28;;;7.58;79.13
21781;BME280;52576;53.614;9.894;2023-04-16T02:52:57;101730.66;;;7.57;79.20
21781;BME280;52576;53.614;9.894;2023-04-16T02:55:01;101723.75;;;7.56;79.20
21781;BME280;52576;53.614;9.894;2023-04-16T02:57:04;101729.81;;;7.57;79.38
21781;BME280;52576;53.614;9.894;2023-04-16T02:59:08;101730.66;;;7.57;79.46
21781;BME280;52576;53.614;9.894;2023-04-16T03:01:13;101734.97;;;7.58;79.29
21781;BME280;52576;53.614;9.894;2023-04-16T03:03:17;101733.28;;;7.57;79.46
21781;BME280;52576;53.614;9.894;2023-04-16T03:05:21;101727.16;;;7.58;79.33
21781;BME280;52576;53.614;9.894;2023-04-16T03:07:25;101729.75;;;7.58;79.35
21781;BME280;52576;53.614;9.894;2023-04-16T03:09:28;101736.66;;;7.59;79.31
21781;BME280;52576;53.614;9.894;2023-04-16T03:11:32;101734.84;;;7.61;79.34
21781;BME280;52576;53.614;9.894;2023-04-16T03:13:36;101734.84;;;7.61;79.26
21781;BME280;52576;53.614;9.894;2023-04-16T03:15:39;101737.47;;;7.61;79.22
21781;BME280;52576;53.614;9.894;2023-04-16T03:17:44;101731.34;;;7.62;79.26
21781;BME280;52576;53.614;9.894;2023-04-16T03:19:48;101733.03;;;7.63;79.23
21781;BME280;52576;53.614;9.894;2023-04-16T03:21:53;101728.66;;;7.64;79.23
21781;BME280;52576;53.614;9.894;2023-04-16T03:23:57;101736.38;;;7.67;79.04
21781;BME280;52576;53.614;9.894;2023-04-16T03:26:00;101733.81;;;7.65;79.03
21781;BME280;52576;53.614;9.894;2023-04-16T03:28:04;101740.75;;;7.66;79.03
21781;BME280;52576;53.614;9.894;2023-04-16T03:30:10;101739.84;;;7.67;79.03
21781;BME280;52576;53.614;9.894;2023-04-16T03:32:14;101734.63;;;7.67;79.04
21781;BME280;52576;53.614;9.894;2023-04-16T03:34:24;101737.16;;;7.69;79.04
21781;BME280;52576;53.614;9.894;2023-04-16T03:36:27;101736.19;;;7.71;79.02
21781;BME280;52576;53.614;9.894;2023-04-16T03:38:32;101741.44;;;7.71;78.99
21781;BME280;52576;53.614;9.894;2023-04-16T03:40:35;101734.38;;;7.73;79.01
21781;BME280;52576;53.614;9.894;2023-04-16T03:42:38;101745.69;;;7.74;78.76
21781;BME280;52576;53.614;9.894;2023-04-16T03:44:42;101743.91;;;7.74;78.67
21781;BME280;52576;53.614;9.894;2023-04-16T03:46:46;101750.03;;;7.73;78.70
21781;BME280;52576;53.614;9.894;2023-04-16T03:48:50;101747.38;;;7.75;78.75
21781;BME280;52576;53.614;9.894;2023-04-16T03:50:55;101748.22;;;7.75;78.66
21781;BME280;52576;53.614;9.894;2023-04-16T03:52:58;101742.94;;;7.77;78.65
21781;BME280;52576;53.614;9.894;2023-04-16T03:55:03;101743.84;;;7.76;78.58
21781;BME280;52576;53.614;9.894;2023-04-16T03:57:06;101745.56;;;7.77;78.67
21781;BME280;52576;53.614;9.894;2023-04-16T03:59:10;101739.50;;;7.76;78.64
21781;BME280;52576;53.614;9.894;2023-04-16T04:01:13;101751.69;;;7.76;78.67
21781;BME280;52576;53.614;9.894;2023-04-16T04:03:17;101743.00;;;7.75;78.70
21781;BME280;52576;53.614;9.894;2023-04-16T04:05:23;101743.91;;;7.74;78.60
21781;BME280;52576;53.614;9.894;2023-04-16T04:07:28;101744.81;;;7.73;78.58
21781;BME280;52576;53.614;9.894;2023-04-16T04:09:32;101743.97;;;7.73;78.80
21781;BME280;52576;53.614;9.894;2023-04-16T04:11:36;101749.19;;;7.73;78.84
21781;BME280;52576;53.614;9.894;2023-04-16T04:13:40;101738.75;;;7.73;78.79
21781;BME280;52576;53.614;9.894;2023-04-16T04:15:43;101752.59;;;7.75;78.78
21781;BME280;52576;53.614;9.894;2023-04-16T04:17:47;101751.75;;;7.74;78.62
21781;BME280;52576;53.614;9.894;2023-04-16T04:19:52;101752.59;;;7.75;78.78
21781;BME280;52576;53.614;9.894;2023-04-16T04:22:01;101751.75;;;7.74;78.92
21781;BME280;52576;53.614;9.894;2023-04-16T04:24:06;101761.28;;;7.75;78.84
21781;BME280;52576;53.614;9.894;2023-04-16T04:26:09;101763.88;;;7.75;78.74
21781;BME280;52576;53.614;9.894;2023-04-16T04:28:14;101761.28;;;7.75;78.84
21781;BME280;52576;53.614;9.894;2023-04-16T04:30:18;101759.50;;;7.76;79.04
21781;BME280;52576;53.614;9.894;2023-04-16T04:32:21;101765.59;;;7.76;78.84
21781;BME280;52576;53.614;9.894;2023-04-16T04:34:25;101756.84;;;7.77;78.84
21781;BME280;52576;53.614;9.894;2023-04-16T04:36:30;101763.75;;;7.78;78.86
21781;BME280;52576;53.614;9.894;2023-04-16T04:38:35;101766.38;;;7.78;78.89
21781;BME280;52576;53.614;9.894;2023-04-16T04:40:40;101769.97;;;7.76;78.75
21781;BME280;52576;53.614;9.894;2023-04-16T04:42:43;101774.31;;;7.75;78.78
21781;BME280;52576;53.614;9.894;2023-04-16T04:44:47;101766.50;;;7.75;78.78
21781;BME280;52576;53.614;9.894;2023-04-16T04:46:50;101769.22;;;7.72;78.90
21781;BME280;52576;53.614;9.894;2023-04-16T04:48:54;101774.44;;;7.72;78.95
21781;BME280;52576;53.614;9.894;2023-04-16T04:50:57;101777.91;;;7.73;78.99
21781;BME280;52576;53.614;9.894;2023-04-16T04:53:02;101771.84;;;7.72;79.05
21781;BME280;52576;53.614;9.894;2023-04-16T04:55:11;101775.28;;;7.73;79.19
21781;BME280;52576;53.614;9.894;2023-04-16T04:57:18;101783.06;;;7.74;79.08
21781;BME280;52576;53.614;9.894;2023-04-16T04:59:25;101783.06;;;7.74;79.04
21781;BME280;52576;53.614;9.894;2023-04-16T05:01:28;101779.59;;;7.74;79.07
21781;BME280;52576;53.614;9.894;2023-04-16T05:03:32;101776.94;;;7.75;79.11
21781;BME280;52576;53.614;9.894;2023-04-16T05:05:35;101771.72;;;7.75;79.24
21781;BME280;52576;53.614;9.894;2023-04-16T05:07:39;101776.03;;;7.76;79.18
21781;BME280;52576;53.614;9.894;2023-04-16T05:09:43;101780.34;;;7.77;79.21
21781;BME280;52576;53.614;9.894;2023-04-16T05:11:46;101782.94;;;7.77;79.24
21781;BME280;52576;53.614;9.894;2023-04-16T05:13:51;101781.94;;;7.80;79.22
21781;BME280;52576;53.614;9.894;2023-04-16T05:15:54;101782.78;;;7.80;79.18
21781;BME280;52576;53.614;9.894;2023-04-16T05:17:58;101788.81;;;7.82;79.07
21781;BME280;52576;53.614;9.894;2023-04-16T05:20:02;101787.91;;;7.83;79.27
21781;BME280;52576;53.614;9.894;2023-04-16T05:22:05;101793.13;;;7.83;79.22
21781;BME280;52576;53.614;9.894;2023-04-16T05:24:09;101789.59;;;7.84;79.27
21781;BME280;52576;53.614;9.894;2023-04-16T05:26:15;101793.00;;;7.87;79.29
21781;BME280;52576;53.614;9.894;2023-04-16T05:28:19;101801.63;;;7.89;79.22
21781;BME280;52576;53.614;9.894;2023-04-16T05:30:24;101801.50;;;7.92;79.13
21781;BME280;52576;53.614;9.894;2023-04-16T05:32:27;101807.53;;;7.94;79.10
21781;BME280;52576;53.614;9.894;2023-04-16T05:34:31;101808.31;;;7.96;79.07
21781;BME280;52576;53.614;9.894;2023-04-16T05:36:34;101807.47;;;7.95;78.93
21781;BME280;52576;53.614;9.894;2023-04-16T05:38:38;101805.66;;;7.97;79.04
21781;BME280;52576;53.614;9.894;2023-04-16T05:40:41;101812.56;;;7.98;78.96
21781;BME280;52576;53.614;9.894;2023-04-16T05:42:45;101815.13;;;8.00;79.04
21781;BME280;52576;53.614;9.894;2023-04-16T05:44:49;101820.28;;;8.01;78.93
21781;BME280;52576;53.614;9.894;2023-04-16T05:46:54;101825.38;;;8.04;78.97
21781;BME280;52576;53.614;9.894;2023-04-16T05:48:58;101822.69;;;8.06;78.96
21781;BME280;52576;53.614;9.894;2023-04-16T05:51:01;101828.69;;;8.08;78.85
21781;BME280;52576;53.614;9.894;2023-04-16T05:53:07;101832.97;;;8.10;78.88
21781;BME280;52576;53.614;9.894;2023-04-16T05:55:10;101830.28;;;8.12;78.73
21781;BME280;52576;53.614;9.894;2023-04-16T05:57:14;101833.75;;;8.12;78.64
21781;BME280;52576;53.614;9.894;2023-04-16T05:59:17;101833.69;;;8.14;78.69
21781;BME280;52576;53.614;9.894;2023-04-16T06:01:21;101838.78;;;8.17;78.57
21781;BME280;52576;53.614;9.894;2023-04-16T06:03:26;101836.13;;;8.18;78.72
21781;BME280;52576;53.614;9.894;2023-04-16T06:05:30;101837.81;;;8.20;78.60
21781;BME280;52576;53.614;9.894;2023-04-16T06:07:33;101836.00;;;8.22;78.43
21781;BME280;52576;53.614;9.894;2023-04-16T06:09:37;101840.31;;;8.23;78.46
21781;BME280;52576;53.614;9.894;2023-04-16T06:11:40;101834.13;;;8.25;78.53
21781;BME280;52576;53.614;9.894;2023-04-16T06:13:44;101838.44;;;8.26;78.46
21781;BME280;52576;53.614;9.894;2023-04-16T06:15:47;101832.25;;;8.29;78.18
21781;BME280;52576;53.614;9.894;2023-04-16T06:17:51;101836.63;;;8.28;78.11
21781;BME280;52576;53.614;9.894;2023-04-16T06:19:56;101841.72;;;8.31;78.12
21781;BME280;52576;53.614;9.894;2023-04-16T06:21:59;101842.50;;;8.33;78.20
21781;BME280;52576;53.614;9.894;2023-04-16T06:24:03;101849.38;;;8.36;78.18
21781;BME280;52576;53.614;9.894;2023-04-16T06:26:07;101841.47;;;8.37;78.05
21781;BME280;52576;53.614;9.894;2023-04-16T06:28:10;101841.34;;;8.40;78.05
21781;BME280;52576;53.614;9.894;2023-04-16T06:30:15;101839.47;;;8.44;78.02
21781;BME280;52576;53.614;9.894;2023-04-16T06:32:20;101850.59;;;8.49;77.95
21781;BME280;52576;53.614;9.894;2023-04-16T06:34:25;101849.63;;;8.52;77.79
21781;BME280;52576;53.614;9.894;2023-04-16T06:36:30;101851.25;;;8.54;77.61
21781;BME280;52576;53.614;9.894;2023-04-16T06:38:34;101856.38;;;8.57;77.51
21781;BME280;52576;53.614;9.894;2023-04-16T06:40:38;101861.50;;;8.59;77.27
21781;BME280;52576;53.614;9.894;2023-04-16T06:42:42;101856.09;;;8.63;77.39
21781;BME280;52576;53.614;9.894;2023-04-16T06:44:46;101862.81;;;8.69;77.28
21781;BME280;52576;53.614;9.894;2023-04-16T06:46:50;101859.19;;;8.73;77.29
21781;BME280;52576;53.614;9.894;2023-04-16T06:48:54;101861.66;;;8.76;77.05
21781;BME280;52576;53.614;9.894;2023-04-16T06:50:57;101865.00;;;8.79;76.75
21781;BME280;52576;53.614;9.894;2023-04-16T06:53:02;101868.41;;;8.81;76.66
21781;BME280;52576;53.614;9.894;2023-04-16T06:55:06;101867.56;;;8.81;76.58
21781;BME280;52576;53.614;9.894;2023-04-16T06:57:10;101873.63;;;8.81;76.67
21781;BME280;52576;53.614;9.894;2023-04-16T06:59:14;101875.34;;;8.82;76.53
21781;BME280;52576;53.614;9.894;2023-04-16T07:01:18;101875.34;;;8.82;76.35
21781;BME280;52576;53.614;9.894;2023-04-16T07:03:21;101881.41;;;8.83;76.12
21781;BME280;52576;53.614;9.894;2023-04-16T07:05:25;101882.25;;;8.83;76.24
21781;BME280;52576;53.614;9.894;2023-04-16T07:07:29;101874.34;;;8.85;76.19
21781;BME280;52576;53.614;9.894;2023-04-16T07:09:34;101880.41;;;8.85;76.07
21781;BME280;52576;53.614;9.894;2023-04-16T07:11:38;101877.75;;;8.87;76.05
21781;BME280;52576;53.614;9.894;2023-04-16T07:13:41;101884.66;;;8.88;75.91
21781;BME280;52576;53.614;9.894;2023-04-16T07:15:45;101890.69;;;8.90;75.79
21781;BME280;52576;53.614;9.894;2023-04-16T07:17:49;101881.00;;;8.92;75.65
21781;BME280;52576;53.614;9.894;2023-04-16T07:19:52;101887.81;;;8.96;75.54
21781;BME280;52576;53.614;9.894;2023-04-16T07:21:56;101883.25;;;9.01;75.33
21781;BME280;52576;53.614;9.894;2023-04-16T07:24:00;101884.03;;;9.03;75.18
21781;BME280;52576;53.614;9.894;2023-04-16T07:26:05;101885.59;;;9.07;75.16
21781;BME280;52576;53.614;9.894;2023-04-16T07:28:08;101890.56;;;9.13;75.11
21781;BME280;52576;53.614;9.894;2023-04-16T07:30:12;101890.28;;;9.19;75.21
21781;BME280;52576;53.614;9.894;2023-04-16T07:32:15;101890.88;;;9.26;74.82
21781;BME280;52576;53.614;9.894;2023-04-16T07:34:21;101889.00;;;9.30;74.40
21781;BME280;52576;53.614;9.894;2023-04-16T07:36:25;101892.34;;;9.33;74.24
21781;BME280;52576;53.614;9.894;2023-04-16T07:38:30;101896.53;;;9.36;74.13
21781;BME280;52576;53.614;9.894;2023-04-16T07:40:35;101895.63;;;9.37;74.15
21781;BME280;52576;53.614;9.894;2023-04-16T07:42:40;101896.41;;;9.39;73.99
21781;BME280;52576;53.614;9.894;2023-04-16T07:44:45;101899.88;;;9.39;73.92
21781;BME280;52576;53.614;9.894;2023-04-16T07:46:48;101891.91;;;9.42;73.81
21781;BME280;52576;53.614;9.894;2023-04-16T07:48:52;101897.00;;;9.45;73.76
21781;BME280;52576;53.614;9.894;2023-04-16T07:50:55;101895.19;;;9.47;73.48
21781;BME280;52576;53.614;9.894;2023-04-16T07:52:59;101902.03;;;9.50;73.47
21781;BME280;52576;53.614;9.894;2023-04-16T07:55:02;101895.81;;;9.52;73.40
21781;BME280;52576;53.614;9.894;2023-04-16T07:57:06;101906.09;;;9.57;73.44
21781;BME280;52576;53.614;9.894;2023-04-16T07:59:21;101904.25;;;9.59;73.12
21781;BME280;52576;53.614;9.894;2023-04-16T08:01:25;101907.66;;;9.61;72.86
21781;BME280;52576;53.614;9.894;2023-04-16T08:03:29;101905.78;;;9.63;72.96
21781;BME280;52576;53.614;9.894;2023-04-16T08:05:34;101908.34;;;9.65;72.85
21781;BME280;52576;53.614;9.894;2023-04-16T08:07:38;101911.69;;;9.68;72.93
21781;BME280;52576;53.614;9.894;2023-04-16T08:09:50;101912.34;;;9.73;72.90
21781;BME280;52576;53.614;9.894;2023-04-16T08:11:55;101912.19;;;9.76;72.68
21781;BME280;52576;53.614;9.894;2023-04-16T08:13:58;101911.28;;;9.77;72.22
21781;BME280;52576;53.614;9.894;2023-04-16T08:16:04;101919.13;;;9.77;72.18
21781;BME280;52576;53.614;9.894;2023-04-16T08:18:09;101919.91;;;9.79;71.75
21781;BME280;52576;53.614;9.894;2023-04-16T08:20:16;101908.53;;;9.80;71.85
21781;BME280;52576;53.614;9.894;2023-04-16T08:22:23;101920.56;;;9.84;71.52
21781;BME280;52576;53.614;9.894;2023-04-16T08:24:27;101918.72;;;9.86;71.23
21781;BME280;52576;53.614;9.894;2023-04-16T08:26:30;101917.72;;;9.89;71.20
21781;BME280;52576;53.614;9.894;2023-04-16T08:28:34;101930.47;;;9.97;71.17
21781;BME280;52576;53.614;9.894;2023-04-16T08:30:37;101932.81;;;10.03;70.93
21781;BME280;52576;53.614;9.894;2023-04-16T08:32:43;101936.78;;;10.11;70.67
21781;BME280;52576;53.614;9.894;2023-04-16T08:34:48;101934.69;;;10.18;70.30
21781;BME280;52576;53.614;9.894;2023-04-16T08:36:52;101936.94;;;10.27;70.34
21781;BME280;52576;53.614;9.894;2023-04-16T08:38:56;101938.03;;;10.40;69.87
21781;BME280;52576;53.614;9.894;2023-04-16T08:41:02;101946.19;;;10.53;69.66
21781;BME280;52576;53.614;9.894;2023-04-16T08:43:09;101946.59;;;10.63;68.99
21781;BME280;52576;53.614;9.894;2023-04-16T08:45:16;101949.06;;;10.66;68.79
21781;BME280;52576;53.614;9.894;2023-04-16T08:47:22;101949.75;;;10.69;68.86
21781;BME280;52576;53.614;9.894;2023-04-16T08:49:33;101943.66;;;10.69;68.69
21781;BME280;52576;53.614;9.894;2023-04-16T08:51:42;101948.97;;;10.67;68.23
21781;BME280;52576;53.614;9.894;2023-04-16T08:53:50;101952.63;;;10.65;68.46
21781;BME280;52576;53.614;9.894;2023-04-16T08:55:57;101946.59;;;10.63;68.61
21781;BME280;52576;53.614;9.894;2023-04-16T08:58:07;101949.06;;;10.66;68.90
21781;BME280;52576;53.614;9.894;2023-04-16T09:00:12;101942.59;;;10.73;68.68
21781;BME280;52576;53.614;9.894;2023-04-16T09:02:16;101942.16;;;10.82;68.59
21781;BME280;52576;53.614;9.894;2023-04-16T09:04:21;101943.09;;;10.98;68.59
21781;BME280;52576;53.614;9.894;2023-04-16T09:06:29;101945.25;;;11.25;68.13
21781;BME280;52576;53.614;9.894;2023-04-16T09:08:33;101947.53;;;11.48;67.37
21781;BME280;52576;53.614;9.894;2023-04-16T09:10:39;101949.63;;;11.74;67.02
21781;BME280;52576;53.614;9.894;2023-04-16T09:12:42;101951.91;;;11.98;65.94
21781;BME280;52576;53.614;9.894;2023-04-16T09:14:48;101950.50;;;12.08;65.20
21781;BME280;52576;53.614;9.894;2023-04-16T09:16:53;101950.25;;;12.12;64.81
21781;BME280;52576;53.614;9.894;2023-04-16T09:18:57;101957.22;;;12.13;64.79
21781;BME280;52576;53.614;9.894;2023-04-16T09:21:03;101957.22;;;12.13;64.54
21781;BME280;52576;53.614;9.894;2023-04-16T09:23:09;101959.91;;;12.12;63.97
21781;BME280;52576;53.614;9.894;2023-04-16T09:25:13;101955.84;;;12.06;63.82
21781;BME280;52576;53.614;9.894;2023-04-16T09:27:18;101964.97;;;11.99;64.01
21781;BME280;52576;53.614;9.894;2023-04-16T09:29:37;101959.88;;;11.96;64.21
21781;BME280;52576;53.614;9.894;2023-04-16T09:32:00;101972.09;;;11.97;64.17
21781;BME280;52576;53.614;9.894;2023-04-16T09:34:05;101967.88;;;11.95;63.91
21781;BME280;52576;53.614;9.894;2023-04-16T09:36:10;101965.31;;;11.93;64.20
21781;BME280;52576;53.614;9.894;2023-04-16T09:38:16;101973.13;;;11.95;64.17
21781;BME280;52576;53.614;9.894;2023-04-16T09:40:23;101967.69;;;11.98;63.89
21781;BME280;52576;53.614;9.894;2023-04-16T09:42:29;101974.72;;;11.97;64.11
21781;BME280;52576;53.614;9.894;2023-04-16T09:44:34;101973.13;;;11.95;63.75
21781;BME280;52576;53.614;9.894;2023-04-16T09:46:40;101972.75;;;11.85;63.68
21781;BME280;52576;53.614;9.894;2023-04-16T09:48:46;101988.00;;;11.78;64.19
21781;BME280;52576;53.614;9.894;2023-04-16T09:50:52;101980.22;;;11.75;64.17
21781;BME280;52576;53.614;9.894;2023-04-16T09:53:00;101985.44;;;11.77;64.37
21781;BME280;52576;53.614;9.894;2023-04-16T09:55:09;101985.34;;;11.78;64.51
21781;BME280;52576;53.614;9.894;2023-04-16T09:57:12;101997.63;;;11.78;64.57
21781;BME280;52576;53.614;9.894;2023-04-16T09:59:17;101994.22;;;11.76;64.53
21781;BME280;52576;53.614;9.894;2023-04-16T10:01:20;101990.13;;;11.70;64.40
21781;BME280;52576;53.614;9.894;2023-04-16T10:03:30;101991.41;;;11.63;64.53
21781;BME280;52576;53.614;9.894;2023-04-16T10:05:34;101984.06;;;11.52;64.50
21781;BME280;52576;53.614;9.894;2023-04-16T10:07:37;101988.84;;;11.44;64.86
21781;BME280;52576;53.614;9.894;2023-04-16T10:09:43;101991.66;;;11.41;65.35
21781;BME280;52576;53.614;9.894;2023-04-16T10:11:53;101998.69;;;11.41;65.73
21781;BME280;52576;53.614;9.894;2023-04-16T10:13:57;102001.13;;;11.44;65.68
21781;BME280;52576;53.614;9.894;2023-04-16T10:16:00;102000.13;;;11.46;65.30
21781;BME280;52576;53.614;9.894;2023-04-16T10:18:05;102002.66;;;11.48;65.13
21781;BME280;52576;53.614;9.894;2023-04-16T10:20:09;102005.13;;;11.51;65.34
21781;BME280;52576;53.614;9.894;2023-04-16T10:22:14;101997.09;;;11.54;64.99
21781;BME280;52576;53.614;9.894;2023-04-16T10:24:18;101998.81;;;11.55;65.01
21781;BME280;52576;53.614;9.894;2023-04-16T10:26:23;102009.38;;;11.53;65.17
21781;BME280;52576;53.614;9.894;2023-04-16T10:28:29;101999.72;;;11.54;64.92
21781;BME280;52576;53.614;9.894;2023-04-16T10:30:33;102011.94;;;11.55;65.00
21781;BME280;52576;53.614;9.894;2023-04-16T10:32:37;102016.34;;;11.54;64.78
21781;BME280;52576;53.614;9.894;2023-04-16T10:34:41;102012.09;;;11.52;64.58
21781;BME280;52576;53.614;9.894;2023-04-16T10:36:47;102004.59;;;11.44;64.82
21781;BME280;52576;53.614;9.894;2023-04-16T10:38:57;102016.44;;;11.36;64.61
21781;BME280;52576;53.614;9.894;2023-04-16T10:41:03;102016.09;;;11.25;65.11
21781;BME280;52576;53.614;9.894;2023-04-16T10:43:07;102021.81;;;11.15;65.34
21781;BME280;52576;53.614;9.894;2023-04-16T10:45:12;102021.34;;;11.07;65.47
21781;BME280;52576;53.614;9.894;2023-04-16T10:47:15;102022.41;;;11.03;65.67
21781;BME280;52576;53.614;9.894;2023-04-16T10:49:22;102023.69;;;10.95;65.84
21781;BME280;52576;53.614;9.894;2023-04-16T10:51:29;102025.78;;;10.88;66.09
21781;BME280;52576;53.614;9.894;2023-04-16T10:53:36;102020.69;;;10.85;66.34
21781;BME280;52576;53.614;9.894;2023-04-16T10:55:39;102026.09;;;10.82;66.31
21781;BME280;52576;53.614;9.894;2023-04-16T10:57:48;102027.91;;;10.80;66.61